sensor_id;sensor_type;location;lat;lon;timestamp;P1;durP1;ratioP1;P2;durP2;ratioP2
22097;SDS011;11215;51.938;8.464;2023-03-02T00:02:21;6.00;;;4.13;;
22097;SDS011;11215;51.938;8.464;2023-03-02T00:04:48;6.87;;;4.03;;
22097;SDS011;11215;51.938;8.464;2023-03-02T00:07:25;6.90;;;4.43;;
22097;SDS011;11215;51.938;8.464;2023-03-02T00:09:56;7.50;;;4.00;;
22097;SDS011;11215;51.938;8.464;2023-03-02T00:12:22;7.10;;;4.23;;
22097;SDS011;11215;51.938;8.464;2023-03-02T00:14:50;7.90;;;4.33;;
22097;SDS011;11215;51.938;8.464;2023-03-02T00:17:16;7.73;;;4.37;;
22097;SDS011;11215;51.938;8.464;2023-03-02T00:19:41;6.33;;;3.77;;
22097;SDS011;11215;51.938;8.464;2023-03-02T00:22:08;5.83;;;3.90;;
22097;SDS011;11215;51.938;8.464;2023-03-02T00:24:34;5.90;;;4.17;;
22097;SDS011;11215;51.938;8.464;2023-03-02T00:27:00;5.93;;;3.93;;
22097;SDS011;11215;51.938;8.464;2023-03-02T00:29:25;6.00;;;4.33;;
22097;SDS011;11215;51.938;8.464;2023-03-02T00:31:51;6.50;;;4.20;;
22097;SDS011;11215;51.938;8.464;2023-03-02T00:34:17;7.53;;;4.40;;
22097;SDS011;11215;51.938;8.464;2023-03-02T00:36:42;7.70;;;4.50;;
22097;SDS011;11215;51.938;8.464;2023-03-02T00:39:08;7.87;;;4.93;;
22097;SDS011;11215;51.938;8.464;2023-03-02T00:41:33;6.57;;;3.80;;
22097;SDS011;11215;51.938;8.464;2023-03-02T00:43:59;7.40;;;4.40;;
22097;SDS011;11215;51.938;8.464;2023-03-02T00:46:25;6.47;;;3.97;;
22097;SDS011;11215;51.938;8.464;2023-03-02T00:48:53;6.07;;;4.27;;
22097;SDS011;11215;51.938;8.464;2023-03-02T00:51:18;6.30;;;4.33;;
22097;SDS011;11215;51.938;8.464;2023-03-02T00:53:44;7.77;;;4.60;;
22097;SDS011;11215;51.938;8.464;2023-03-02T00:56:11;8.13;;;4.37;;
22097;SDS011;11215;51.938;8.464;2023-03-02T00:58:36;6.50;;;4.37;;
22097;SDS011;11215;51.938;8.464;2023-03-02T01:01:06;5.57;;;3.67;;
22097;SDS011;11215;51.938;8.464;2023-03-02T01:03:36;6.87;;;4.43;;
22097;SDS011;11215;51.938;8.464;2023-03-02T01:06:04;6.23;;;4.60;;
22097;SDS011;11215;51.938;8.464;2023-03-02T01:08:37;6.20;;;4.43;;
22097;SDS011;11215;51.938;8.464;2023-03-02T01:11:03;8.37;;;4.90;;
22097;SDS011;11215;51.938;8.464;2023-03-02T01:13:37;8.80;;;4.63;;
22097;SDS011;11215;51.938;8.464;2023-03-02T01:16:02;8.00;;;5.07;;
22097;SDS011;11215;51.938;8.464;2023-03-02T01:18:32;7.00;;;4.70;;
22097;SDS011;11215;51.938;8.464;2023-03-02T01:21:09;8.20;;;3.83;;
22097;SDS011;11215;51.938;8.464;2023-03-02T01:23:36;5.03;;;3.97;;
22097;SDS011;11215;51.938;8.464;2023-03-02T01:26:02;7.70;;;4.13;;
22097;SDS011;11215;51.938;8.464;2023-03-02T01:28:30;8.03;;;4.70;;
22097;SDS011;11215;51.938;8.464;2023-03-02T01:30:56;7.53;;;4.70;;
22097;SDS011;11215;51.938;8.464;2023-03-02T01:33:21;7.40;;;4.30;;
22097;SDS011;11215;51.938;8.464;2023-03-02T01:35:47;7.33;;;4.77;;
22097;SDS011;11215;51.938;8.464;2023-03-02T01:38:13;5.93;;;4.10;;
22097;SDS011;11215;51.938;8.464;2023-03-02T01:40:39;6.40;;;3.80;;
22097;SDS011;11215;51.938;8.464;2023-03-02T01:43:12;6.50;;;4.10;;
22097;SDS011;11215;51.938;8.464;2023-03-02T01:48:17;7.97;;;4.67;;
22097;SDS011;11215;51.938;8.464;2023-03-02T01:50:48;6.93;;;4.37;;
22097;SDS011;11215;51.938;8.464;2023-03-02T01:53:14;7.73;;;4.40;;
22097;SDS011;11215;51.938;8.464;2023-03-02T01:55:41;6.40;;;4.43;;
22097;SDS011;11215;51.938;8.464;2023-03-02T01:58:08;5.77;;;3.97;;
22097;SDS011;11215;51.938;8.464;2023-03-02T02:00:35;6.43;;;4.60;;
22097;SDS011;11215;51.938;8.464;2023-03-02T02:03:16;6.47;;;4.30;;
22097;SDS011;11215;51.938;8.464;2023-03-02T02:08:32;5.83;;;3.73;;
22097;SDS011;11215;51.938;8.464;2023-03-02T02:10:58;6.53;;;3.83;;
22097;SDS011;11215;51.938;8.464;2023-03-02T02:13:24;5.30;;;3.50;;
22097;SDS011;11215;51.938;8.464;2023-03-02T02:15:50;6.60;;;3.67;;
22097;SDS011;11215;51.938;8.464;2023-03-02T02:18:16;7.17;;;3.93;;
22097;SDS011;11215;51.938;8.464;2023-03-02T02:20:43;5.50;;;3.83;;
22097;SDS011;11215;51.938;8.464;2023-03-02T02:28:10;7.37;;;4.03;;
22097;SDS011;11215;51.938;8.464;2023-03-02T02:30:46;6.33;;;4.07;;
22097;SDS011;11215;51.938;8.464;2023-03-02T02:33:17;6.57;;;4.07;;
22097;SDS011;11215;51.938;8.464;2023-03-02T02:35:46;5.50;;;3.83;;
22097;SDS011;11215;51.938;8.464;2023-03-02T02:38:13;8.57;;;4.43;;
22097;SDS011;11215;51.938;8.464;2023-03-02T02:40:49;5.87;;;4.03;;
22097;SDS011;11215;51.938;8.464;2023-03-02T02:43:19;6.83;;;4.43;;
22097;SDS011;11215;51.938;8.464;2023-03-02T02:45:47;6.13;;;3.93;;
22097;SDS011;11215;51.938;8.464;2023-03-02T02:48:17;5.47;;;4.17;;
22097;SDS011;11215;51.938;8.464;2023-03-02T02:50:44;5.30;;;4.10;;
22097;SDS011;11215;51.938;8.464;2023-03-02T02:53:12;8.03;;;4.40;;
22097;SDS011;11215;51.938;8.464;2023-03-02T02:55:47;7.87;;;4.20;;
22097;SDS011;11215;51.938;8.464;2023-03-02T03:00:43;7.30;;;4.30;;
22097;SDS011;11215;51.938;8.464;2023-03-02T03:03:12;7.87;;;4.43;;
22097;SDS011;11215;51.938;8.464;2023-03-02T03:05:53;7.47;;;4.33;;
22097;SDS011;11215;51.938;8.464;2023-03-02T03:11:11;8.00;;;4.30;;
22097;SDS011;11215;51.938;8.464;2023-03-02T03:13:38;7.27;;;4.83;;
22097;SDS011;11215;51.938;8.464;2023-03-02T03:16:06;8.20;;;4.93;;
22097;SDS011;11215;51.938;8.464;2023-03-02T03:18:35;8.17;;;4.80;;
22097;SDS011;11215;51.938;8.464;2023-03-02T03:21:01;7.30;;;4.33;;
22097;SDS011;11215;51.938;8.464;2023-03-02T03:23:27;8.47;;;5.07;;
22097;SDS011;11215;51.938;8.464;2023-03-02T03:25:52;6.77;;;4.43;;
22097;SDS011;11215;51.938;8.464;2023-03-02T03:28:18;8.40;;;5.03;;
22097;SDS011;11215;51.938;8.464;2023-03-02T03:30:44;8.73;;;5.03;;
22097;SDS011;11215;51.938;8.464;2023-03-02T03:33:09;9.40;;;4.83;;
22097;SDS011;11215;51.938;8.464;2023-03-02T03:35:35;7.53;;;4.97;;
22097;SDS011;11215;51.938;8.464;2023-03-02T03:38:02;8.73;;;4.87;;
22097;SDS011;11215;51.938;8.464;2023-03-02T03:40:32;7.20;;;4.90;;
22097;SDS011;11215;51.938;8.464;2023-03-02T03:43:01;7.93;;;4.63;;
22097;SDS011;11215;51.938;8.464;2023-03-02T03:45:28;7.10;;;4.60;;
22097;SDS011;11215;51.938;8.464;2023-03-02T03:47:54;7.40;;;4.30;;
22097;SDS011;11215;51.938;8.464;2023-03-02T03:50:20;7.03;;;4.50;;
22097;SDS011;11215;51.938;8.464;2023-03-02T03:52:47;7.50;;;4.57;;
22097;SDS011;11215;51.938;8.464;2023-03-02T03:55:12;8.53;;;5.03;;
22097;SDS011;11215;51.938;8.464;2023-03-02T03:57:38;8.60;;;5.00;;
22097;SDS011;11215;51.938;8.464;2023-03-02T04:00:05;7.57;;;4.43;;
22097;SDS011;11215;51.938;8.464;2023-03-02T04:02:34;6.73;;;4.83;;
22097;SDS011;11215;51.938;8.464;2023-03-02T04:05:01;7.73;;;4.80;;
22097;SDS011;11215;51.938;8.464;2023-03-02T04:07:34;8.43;;;4.93;;
22097;SDS011;11215;51.938;8.464;2023-03-02T04:10:00;6.47;;;4.17;;
22097;SDS011;11215;51.938;8.464;2023-03-02T04:12:30;7.50;;;4.63;;
22097;SDS011;11215;51.938;8.464;2023-03-02T04:14:57;6.90;;;4.60;;
22097;SDS011;11215;51.938;8.464;2023-03-02T04:17:22;7.97;;;4.80;;
22097;SDS011;11215;51.938;8.464;2023-03-02T04:19:48;7.83;;;5.33;;
22097;SDS011;11215;51.938;8.464;2023-03-02T04:22:14;6.57;;;4.57;;
22097;SDS011;11215;51.938;8.464;2023-03-02T04:24:41;8.80;;;4.93;;
22097;SDS011;11215;51.938;8.464;2023-03-02T04:27:07;7.13;;;4.40;;
22097;SDS011;11215;51.938;8.464;2023-03-02T04:29:33;8.87;;;4.47;;
22097;SDS011;11215;51.938;8.464;2023-03-02T04:31:59;7.77;;;4.27;;
22097;SDS011;11215;51.938;8.464;2023-03-02T04:34:25;11.30;;;5.30;;
22097;SDS011;11215;51.938;8.464;2023-03-02T04:36:51;8.07;;;4.80;;
22097;SDS011;11215;51.938;8.464;2023-03-02T04:39:17;7.23;;;4.60;;
22097;SDS011;11215;51.938;8.464;2023-03-02T04:41:44;8.37;;;4.77;;
22097;SDS011;11215;51.938;8.464;2023-03-02T04:44:10;6.50;;;4.37;;
22097;SDS011;11215;51.938;8.464;2023-03-02T04:46:37;7.57;;;4.50;;
22097;SDS011;11215;51.938;8.464;2023-03-02T04:49:03;6.53;;;4.17;;
22097;SDS011;11215;51.938;8.464;2023-03-02T04:51:31;8.77;;;4.77;;
22097;SDS011;11215;51.938;8.464;2023-03-02T04:53:59;8.13;;;4.90;;
22097;SDS011;11215;51.938;8.464;2023-03-02T04:56:27;9.03;;;4.70;;
22097;SDS011;11215;51.938;8.464;2023-03-02T04:58:53;6.47;;;4.20;;
22097;SDS011;11215;51.938;8.464;2023-03-02T05:01:19;6.37;;;4.10;;
22097;SDS011;11215;51.938;8.464;2023-03-02T05:03:46;7.23;;;4.17;;
22097;SDS011;11215;51.938;8.464;2023-03-02T05:06:13;8.20;;;4.80;;
22097;SDS011;11215;51.938;8.464;2023-03-02T05:08:38;7.00;;;4.37;;
22097;SDS011;11215;51.938;8.464;2023-03-02T05:11:05;6.77;;;4.67;;
22097;SDS011;11215;51.938;8.464;2023-03-02T05:13:32;6.30;;;4.57;;
22097;SDS011;11215;51.938;8.464;2023-03-02T05:15:58;6.60;;;4.07;;
22097;SDS011;11215;51.938;8.464;2023-03-02T05:18:25;7.70;;;4.47;;
22097;SDS011;11215;51.938;8.464;2023-03-02T05:20:51;6.93;;;4.70;;
22097;SDS011;11215;51.938;8.464;2023-03-02T05:23:18;7.43;;;4.27;;
22097;SDS011;11215;51.938;8.464;2023-03-02T05:25:51;9.10;;;5.33;;
22097;SDS011;11215;51.938;8.464;2023-03-02T05:28:18;6.63;;;4.40;;
22097;SDS011;11215;51.938;8.464;2023-03-02T05:30:45;8.57;;;4.50;;
22097;SDS011;11215;51.938;8.464;2023-03-02T05:33:11;7.67;;;4.70;;
22097;SDS011;11215;51.938;8.464;2023-03-02T05:35:37;6.17;;;4.30;;
22097;SDS011;11215;51.938;8.464;2023-03-02T05:38:03;6.30;;;4.60;;
22097;SDS011;11215;51.938;8.464;2023-03-02T05:40:29;6.57;;;4.53;;
22097;SDS011;11215;51.938;8.464;2023-03-02T05:42:55;6.77;;;4.60;;
22097;SDS011;11215;51.938;8.464;2023-03-02T05:45:26;6.40;;;4.17;;
22097;SDS011;11215;51.938;8.464;2023-03-02T05:47:53;9.17;;;4.77;;
22097;SDS011;11215;51.938;8.464;2023-03-02T05:50:19;7.97;;;4.67;;
22097;SDS011;11215;51.938;8.464;2023-03-02T05:52:45;8.00;;;4.73;;
22097;SDS011;11215;51.938;8.464;2023-03-02T05:55:12;8.93;;;4.97;;
22097;SDS011;11215;51.938;8.464;2023-03-02T05:57:38;7.50;;;4.33;;
22097;SDS011;11215;51.938;8.464;2023-03-02T06:00:05;6.33;;;4.20;;
22097;SDS011;11215;51.938;8.464;2023-03-02T06:02:31;5.07;;;4.10;;
22097;SDS011;11215;51.938;8.464;2023-03-02T06:04:56;6.57;;;4.30;;
22097;SDS011;11215;51.938;8.464;2023-03-02T06:07:22;8.57;;;5.13;;
22097;SDS011;11215;51.938;8.464;2023-03-02T06:09:48;5.97;;;4.20;;
22097;SDS011;11215;51.938;8.464;2023-03-02T06:12:15;7.57;;;4.53;;
22097;SDS011;11215;51.938;8.464;2023-03-02T06:14:42;6.50;;;4.43;;
22097;SDS011;11215;51.938;8.464;2023-03-02T06:17:08;7.20;;;4.70;;
22097;SDS011;11215;51.938;8.464;2023-03-02T06:19:34;7.97;;;4.60;;
22097;SDS011;11215;51.938;8.464;2023-03-02T06:28:20;7.53;;;4.20;;
22097;SDS011;11215;51.938;8.464;2023-03-02T06:30:46;7.47;;;4.60;;
22097;SDS011;11215;51.938;8.464;2023-03-02T06:33:16;6.20;;;4.53;;
22097;SDS011;11215;51.938;8.464;2023-03-02T06:35:43;7.43;;;4.80;;
22097;SDS011;11215;51.938;8.464;2023-03-02T06:38:09;8.27;;;4.80;;
22097;SDS011;11215;51.938;8.464;2023-03-02T06:40:34;6.60;;;4.33;;
22097;SDS011;11215;51.938;8.464;2023-03-02T06:43:00;9.40;;;4.80;;
22097;SDS011;11215;51.938;8.464;2023-03-02T06:45:26;7.73;;;4.87;;
22097;SDS011;11215;51.938;8.464;2023-03-02T06:47:53;6.13;;;4.33;;
22097;SDS011;11215;51.938;8.464;2023-03-02T06:50:19;7.43;;;4.80;;
22097;SDS011;11215;51.938;8.464;2023-03-02T06:52:45;7.87;;;4.77;;
22097;SDS011;11215;51.938;8.464;2023-03-02T06:55:11;8.37;;;4.37;;
22097;SDS011;11215;51.938;8.464;2023-03-02T06:57:36;8.07;;;4.50;;
22097;SDS011;11215;51.938;8.464;2023-03-02T07:00:06;7.50;;;4.03;;
22097;SDS011;11215;51.938;8.464;2023-03-02T07:02:35;8.90;;;5.03;;
22097;SDS011;11215;51.938;8.464;2023-03-02T07:05:01;8.60;;;4.97;;
22097;SDS011;11215;51.938;8.464;2023-03-02T07:07:27;6.53;;;4.13;;
22097;SDS011;11215;51.938;8.464;2023-03-02T07:09:52;6.50;;;4.20;;
22097;SDS011;11215;51.938;8.464;2023-03-02T07:12:18;7.63;;;4.93;;
22097;SDS011;11215;51.938;8.464;2023-03-02T07:14:43;8.50;;;4.63;;
22097;SDS011;11215;51.938;8.464;2023-03-02T07:17:09;8.20;;;4.87;;
22097;SDS011;11215;51.938;8.464;2023-03-02T07:19:35;7.57;;;5.40;;
22097;SDS011;11215;51.938;8.464;2023-03-02T07:22:02;7.40;;;5.00;;
22097;SDS011;11215;51.938;8.464;2023-03-02T07:24:29;9.00;;;5.40;;
22097;SDS011;11215;51.938;8.464;2023-03-02T07:26:55;9.80;;;6.10;;
22097;SDS011;11215;51.938;8.464;2023-03-02T07:29:20;10.70;;;5.77;;
22097;SDS011;11215;51.938;8.464;2023-03-02T07:31:46;10.87;;;6.23;;
22097;SDS011;11215;51.938;8.464;2023-03-02T07:34:20;10.03;;;5.50;;
22097;SDS011;11215;51.938;8.464;2023-03-02T07:36:50;10.53;;;6.40;;
22097;SDS011;11215;51.938;8.464;2023-03-02T07:39:16;12.10;;;6.83;;
22097;SDS011;11215;51.938;8.464;2023-03-02T07:41:42;9.83;;;6.37;;
22097;SDS011;11215;51.938;8.464;2023-03-02T07:44:08;10.77;;;7.10;;
22097;SDS011;11215;51.938;8.464;2023-03-02T07:46:34;12.83;;;7.23;;
22097;SDS011;11215;51.938;8.464;2023-03-02T07:49:00;10.40;;;7.10;;
22097;SDS011;11215;51.938;8.464;2023-03-02T07:51:26;12.43;;;6.87;;
22097;SDS011;11215;51.938;8.464;2023-03-02T07:53:52;10.33;;;6.63;;
22097;SDS011;11215;51.938;8.464;2023-03-02T07:56:17;9.90;;;6.47;;
22097;SDS011;11215;51.938;8.464;2023-03-02T07:58:44;8.13;;;6.23;;
22097;SDS011;11215;51.938;8.464;2023-03-02T08:01:10;10.10;;;6.80;;
22097;SDS011;11215;51.938;8.464;2023-03-02T08:03:36;9.53;;;6.43;;
22097;SDS011;11215;51.938;8.464;2023-03-02T08:06:06;11.67;;;6.47;;
22097;SDS011;11215;51.938;8.464;2023-03-02T08:08:34;10.87;;;7.20;;
22097;SDS011;11215;51.938;8.464;2023-03-02T08:11:06;11.13;;;7.40;;
22097;SDS011;11215;51.938;8.464;2023-03-02T08:13:33;9.20;;;6.43;;
22097;SDS011;11215;51.938;8.464;2023-03-02T08:16:02;10.20;;;7.23;;
22097;SDS011;11215;51.938;8.464;2023-03-02T08:18:30;12.00;;;7.17;;
22097;SDS011;11215;51.938;8.464;2023-03-02T08:20:56;11.17;;;7.33;;
22097;SDS011;11215;51.938;8.464;2023-03-02T08:23:22;13.30;;;8.17;;
22097;SDS011;11215;51.938;8.464;2023-03-02T08:25:48;11.27;;;7.40;;
22097;SDS011;11215;51.938;8.464;2023-03-02T08:28:13;12.80;;;7.83;;
22097;SDS011;11215;51.938;8.464;2023-03-02T08:30:39;12.70;;;7.90;;
22097;SDS011;11215;51.938;8.464;2023-03-02T08:33:04;12.37;;;8.33;;
22097;SDS011;11215;51.938;8.464;2023-03-02T08:35:30;16.27;;;8.90;;
22097;SDS011;11215;51.938;8.464;2023-03-02T08:37:56;12.57;;;8.13;;
22097;SDS011;11215;51.938;8.464;2023-03-02T08:40:23;12.57;;;8.37;;
22097;SDS011;11215;51.938;8.464;2023-03-02T08:42:49;11.97;;;7.67;;
22097;SDS011;11215;51.938;8.464;2023-03-02T08:45:20;18.63;;;8.63;;
22097;SDS011;11215;51.938;8.464;2023-03-02T08:47:51;12.07;;;8.43;;
22097;SDS011;11215;51.938;8.464;2023-03-02T08:50:17;13.90;;;8.47;;
22097;SDS011;11215;51.938;8.464;2023-03-02T08:52:43;14.97;;;9.07;;
22097;SDS011;11215;51.938;8.464;2023-03-02T08:55:09;12.10;;;7.73;;
22097;SDS011;11215;51.938;8.464;2023-03-02T08:57:34;13.07;;;8.93;;
22097;SDS011;11215;51.938;8.464;2023-03-02T09:00:00;12.60;;;8.47;;
22097;SDS011;11215;51.938;8.464;2023-03-02T09:02:26;13.80;;;8.63;;
22097;SDS011;11215;51.938;8.464;2023-03-02T09:07:46;11.37;;;7.27;;
22097;SDS011;11215;51.938;8.464;2023-03-02T09:13:21;12.27;;;7.53;;
22097;SDS011;11215;51.938;8.464;2023-03-02T09:15:46;10.07;;;7.27;;
22097;SDS011;11215;51.938;8.464;2023-03-02T09:21:46;8.30;;;6.30;;
22097;SDS011;11215;51.938;8.464;2023-03-02T09:24:12;11.77;;;6.40;;
22097;SDS011;11215;51.938;8.464;2023-03-02T09:26:38;11.43;;;7.23;;
22097;SDS011;11215;51.938;8.464;2023-03-02T09:29:12;10.67;;;6.60;;
22097;SDS011;11215;51.938;8.464;2023-03-02T09:31:38;9.17;;;6.50;;
22097;SDS011;11215;51.938;8.464;2023-03-02T09:34:04;11.20;;;6.73;;
22097;SDS011;11215;51.938;8.464;2023-03-02T09:36:29;9.20;;;6.47;;
22097;SDS011;11215;51.938;8.464;2023-03-02T09:38:56;9.53;;;6.60;;
22097;SDS011;11215;51.938;8.464;2023-03-02T09:46:59;11.67;;;7.17;;
22097;SDS011;11215;51.938;8.464;2023-03-02T09:55:37;10.83;;;8.00;;
22097;SDS011;11215;51.938;8.464;2023-03-02T09:58:07;11.63;;;7.53;;
22097;SDS011;11215;51.938;8.464;2023-03-02T10:00:40;11.70;;;7.63;;
22097;SDS011;11215;51.938;8.464;2023-03-02T10:03:27;12.13;;;8.20;;
22097;SDS011;11215;51.938;8.464;2023-03-02T10:05:59;12.77;;;7.83;;
22097;SDS011;11215;51.938;8.464;2023-03-02T10:08:26;10.87;;;7.40;;
22097;SDS011;11215;51.938;8.464;2023-03-02T10:13:33;14.73;;;8.97;;
22097;SDS011;11215;51.938;8.464;2023-03-02T10:16:18;13.17;;;8.17;;
22097;SDS011;11215;51.938;8.464;2023-03-02T10:24:38;12.60;;;8.53;;
22097;SDS011;11215;51.938;8.464;2023-03-02T10:27:21;12.83;;;8.33;;
22097;SDS011;11215;51.938;8.464;2023-03-02T10:33:02;10.93;;;8.00;;
22097;SDS011;11215;51.938;8.464;2023-03-02T10:35:36;12.93;;;8.77;;
22097;SDS011;11215;51.938;8.464;2023-03-02T10:38:21;14.47;;;8.93;;
22097;SDS011;11215;51.938;8.464;2023-03-02T10:46:12;13.83;;;8.33;;
22097;SDS011;11215;51.938;8.464;2023-03-02T10:48:48;11.67;;;7.93;;
22097;SDS011;11215;51.938;8.464;2023-03-02T10:51:32;12.47;;;9.20;;
22097;SDS011;11215;51.938;8.464;2023-03-02T10:54:05;14.33;;;9.17;;
22097;SDS011;11215;51.938;8.464;2023-03-02T10:56:34;15.07;;;9.23;;
22097;SDS011;11215;51.938;8.464;2023-03-02T10:59:00;14.27;;;9.33;;
22097;SDS011;11215;51.938;8.464;2023-03-02T11:01:36;14.73;;;9.13;;
22097;SDS011;11215;51.938;8.464;2023-03-02T11:04:01;15.00;;;8.90;;
22097;SDS011;11215;51.938;8.464;2023-03-02T11:09:31;13.93;;;9.03;;
22097;SDS011;11215;51.938;8.464;2023-03-02T11:15:27;12.47;;;8.63;;
22097;SDS011;11215;51.938;8.464;2023-03-02T11:21:43;12.27;;;8.17;;
22097;SDS011;11215;51.938;8.464;2023-03-02T11:26:58;14.53;;;10.00;;
22097;SDS011;11215;51.938;8.464;2023-03-02T11:33:18;12.07;;;8.47;;
22097;SDS011;11215;51.938;8.464;2023-03-02T11:35:53;14.50;;;9.30;;
22097;SDS011;11215;51.938;8.464;2023-03-02T11:41:45;13.40;;;8.80;;
22097;SDS011;11215;51.938;8.464;2023-03-02T12:00:39;13.07;;;9.70;;
22097;SDS011;11215;51.938;8.464;2023-03-02T12:22:26;15.03;;;10.43;;
22097;SDS011;11215;51.938;8.464;2023-03-02T12:31:23;16.70;;;11.33;;
22097;SDS011;11215;51.938;8.464;2023-03-02T12:37:43;16.33;;;10.77;;
22097;SDS011;11215;51.938;8.464;2023-03-02T12:43:08;15.43;;;10.10;;
22097;SDS011;11215;51.938;8.464;2023-03-02T13:02:59;12.83;;;8.90;;
22097;SDS011;11215;51.938;8.464;2023-03-02T13:18:59;14.87;;;9.53;;
22097;SDS011;11215;51.938;8.464;2023-03-02T13:24:50;15.87;;;10.33;;
22097;SDS011;11215;51.938;8.464;2023-03-02T13:36:46;14.13;;;9.67;;
22097;SDS011;11215;51.938;8.464;2023-03-02T13:42:36;16.43;;;10.70;;
22097;SDS011;11215;51.938;8.464;2023-03-02T13:58:03;17.03;;;11.70;;
22097;SDS011;11215;51.938;8.464;2023-03-02T14:03:50;17.40;;;10.80;;
22097;SDS011;11215;51.938;8.464;2023-03-02T14:06:15;16.77;;;10.70;;
22097;SDS011;11215;51.938;8.464;2023-03-02T14:08:43;16.37;;;10.77;;
22097;SDS011;11215;51.938;8.464;2023-03-02T14:24:03;15.13;;;10.37;;
22097;SDS011;11215;51.938;8.464;2023-03-02T14:32:19;16.63;;;10.80;;
22097;SDS011;11215;51.938;8.464;2023-03-02T14:38:07;17.37;;;11.53;;
22097;SDS011;11215;51.938;8.464;2023-03-02T14:47:36;22.27;;;13.07;;
22097;SDS011;11215;51.938;8.464;2023-03-02T14:59:50;20.40;;;14.47;;
22097;SDS011;11215;51.938;8.464;2023-03-02T15:05:42;22.63;;;15.07;;
22097;SDS011;11215;51.938;8.464;2023-03-02T15:11:29;23.13;;;14.43;;
22097;SDS011;11215;51.938;8.464;2023-03-02T15:17:17;19.73;;;13.70;;
22097;SDS011;11215;51.938;8.464;2023-03-02T15:23:04;19.80;;;13.50;;
22097;SDS011;11215;51.938;8.464;2023-03-02T15:25:39;19.87;;;14.17;;
22097;SDS011;11215;51.938;8.464;2023-03-02T15:28:05;22.23;;;14.63;;
22097;SDS011;11215;51.938;8.464;2023-03-02T15:30:30;21.80;;;14.00;;
22097;SDS011;11215;51.938;8.464;2023-03-02T15:52:37;23.67;;;14.70;;
22097;SDS011;11215;51.938;8.464;2023-03-02T15:58:25;19.87;;;14.00;;
22097;SDS011;11215;51.938;8.464;2023-03-02T16:03:46;18.57;;;13.33;;
22097;SDS011;11215;51.938;8.464;2023-03-02T16:09:33;22.43;;;15.27;;
22097;SDS011;11215;51.938;8.464;2023-03-02T16:15:21;21.37;;;14.50;;
22097;SDS011;11215;51.938;8.464;2023-03-02T16:21:11;24.20;;;14.73;;
22097;SDS011;11215;51.938;8.464;2023-03-02T16:26:58;20.40;;;13.37;;
22097;SDS011;11215;51.938;8.464;2023-03-02T16:32:44;22.87;;;14.50;;
22097;SDS011;11215;51.938;8.464;2023-03-02T16:38:31;26.00;;;16.00;;
22097;SDS011;11215;51.938;8.464;2023-03-02T16:40:57;23.07;;;15.43;;
22097;SDS011;11215;51.938;8.464;2023-03-02T16:46:45;22.93;;;15.30;;
22097;SDS011;11215;51.938;8.464;2023-03-02T16:52:32;24.33;;;16.10;;
22097;SDS011;11215;51.938;8.464;2023-03-02T16:57:48;25.87;;;15.30;;
22097;SDS011;11215;51.938;8.464;2023-03-02T17:00:15;23.87;;;15.43;;
22097;SDS011;11215;51.938;8.464;2023-03-02T17:06:04;24.70;;;15.57;;
22097;SDS011;11215;51.938;8.464;2023-03-02T17:11:53;26.50;;;15.57;;
22097;SDS011;11215;51.938;8.464;2023-03-02T17:17:41;22.00;;;14.03;;
22097;SDS011;11215;51.938;8.464;2023-03-02T17:29:50;27.20;;;16.83;;
22097;SDS011;11215;51.938;8.464;2023-03-02T17:39:00;25.20;;;15.37;;
22097;SDS011;11215;51.938;8.464;2023-03-02T17:44:48;24.77;;;15.77;;
22097;SDS011;11215;51.938;8.464;2023-03-02T17:57:44;28.40;;;16.47;;
22097;SDS011;11215;51.938;8.464;2023-03-02T18:00:12;26.47;;;16.53;;
22097;SDS011;11215;51.938;8.464;2023-03-02T18:09:23;31.40;;;17.63;;
22097;SDS011;11215;51.938;8.464;2023-03-02T18:15:11;29.33;;;17.33;;
22097;SDS011;11215;51.938;8.464;2023-03-02T18:20:24;29.83;;;17.43;;
22097;SDS011;11215;51.938;8.464;2023-03-02T18:22:50;28.27;;;16.80;;
22097;SDS011;11215;51.938;8.464;2023-03-02T18:28:12;31.20;;;18.27;;
22097;SDS011;11215;51.938;8.464;2023-03-02T18:30:38;30.67;;;17.33;;
22097;SDS011;11215;51.938;8.464;2023-03-02T18:49:11;28.43;;;15.63;;
22097;SDS011;11215;51.938;8.464;2023-03-02T18:51:36;26.70;;;16.60;;
22097;SDS011;11215;51.938;8.464;2023-03-02T19:07:37;25.53;;;14.13;;
22097;SDS011;11215;51.938;8.464;2023-03-02T19:10:03;26.60;;;16.63;;
22097;SDS011;11215;51.938;8.464;2023-03-02T19:22:42;21.97;;;13.37;;
22097;SDS011;11215;51.938;8.464;2023-03-02T19:25:08;24.43;;;14.40;;
22097;SDS011;11215;51.938;8.464;2023-03-02T19:34:17;22.63;;;14.17;;
22097;SDS011;11215;51.938;8.464;2023-03-02T19:40:05;19.23;;;11.97;;
22097;SDS011;11215;51.938;8.464;2023-03-02T19:45:44;20.83;;;12.73;;
22097;SDS011;11215;51.938;8.464;2023-03-02T19:48:09;21.80;;;12.37;;
22097;SDS011;11215;51.938;8.464;2023-03-02T19:53:23;23.20;;;13.33;;
22097;SDS011;11215;51.938;8.464;2023-03-02T19:58:40;20.17;;;11.87;;
22097;SDS011;11215;51.938;8.464;2023-03-02T20:03:57;18.47;;;11.47;;
22097;SDS011;11215;51.938;8.464;2023-03-02T20:06:25;17.73;;;11.07;;
22097;SDS011;11215;51.938;8.464;2023-03-02T20:08:56;21.30;;;13.10;;
22097;SDS011;11215;51.938;8.464;2023-03-02T20:14:45;18.23;;;11.67;;
22097;SDS011;11215;51.938;8.464;2023-03-02T20:26:32;17.80;;;11.03;;
22097;SDS011;11215;51.938;8.464;2023-03-02T20:35:59;19.97;;;10.70;;
22097;SDS011;11215;51.938;8.464;2023-03-02T20:38:34;17.53;;;10.77;;
22097;SDS011;11215;51.938;8.464;2023-03-02T20:41:05;20.03;;;10.30;;
22097;SDS011;11215;51.938;8.464;2023-03-02T20:46:54;20.43;;;10.97;;
22097;SDS011;11215;51.938;8.464;2023-03-02T20:52:42;16.30;;;9.67;;
22097;SDS011;11215;51.938;8.464;2023-03-02T20:57:45;19.77;;;10.43;;
22097;SDS011;11215;51.938;8.464;2023-03-02T21:03:43;20.20;;;11.70;;
22097;SDS011;11215;51.938;8.464;2023-03-02T21:06:10;19.40;;;11.47;;
22097;SDS011;11215;51.938;8.464;2023-03-02T21:11:53;18.40;;;10.63;;
22097;SDS011;11215;51.938;8.464;2023-03-02T21:17:13;20.07;;;10.93;;
22097;SDS011;11215;51.938;8.464;2023-03-02T21:23:00;22.47;;;12.40;;
22097;SDS011;11215;51.938;8.464;2023-03-02T21:28:17;18.30;;;11.23;;
22097;SDS011;11215;51.938;8.464;2023-03-02T21:30:42;21.60;;;11.87;;
22097;SDS011;11215;51.938;8.464;2023-03-02T21:33:08;21.53;;;11.33;;
22097;SDS011;11215;51.938;8.464;2023-03-02T21:38:44;22.47;;;11.97;;
22097;SDS011;11215;51.938;8.464;2023-03-02T21:44:31;21.93;;;10.93;;
22097;SDS011;11215;51.938;8.464;2023-03-02T21:50:24;20.60;;;11.27;;
22097;SDS011;11215;51.938;8.464;2023-03-02T21:52:52;20.33;;;11.87;;
22097;SDS011;11215;51.938;8.464;2023-03-02T21:58:22;20.40;;;11.17;;
22097;SDS011;11215;51.938;8.464;2023-03-02T22:00:49;19.70;;;11.57;;
22097;SDS011;11215;51.938;8.464;2023-03-02T22:03:14;18.47;;;11.13;;
22097;SDS011;11215;51.938;8.464;2023-03-02T22:12:11;18.00;;;10.87;;
22097;SDS011;11215;51.938;8.464;2023-03-02T22:17:19;20.27;;;11.37;;
22097;SDS011;11215;51.938;8.464;2023-03-02T22:30:37;17.60;;;10.13;;
22097;SDS011;11215;51.938;8.464;2023-03-02T22:39:46;18.87;;;10.27;;
22097;SDS011;11215;51.938;8.464;2023-03-02T22:45:34;22.67;;;11.03;;
22097;SDS011;11215;51.938;8.464;2023-03-02T22:57:54;17.03;;;10.07;;
22097;SDS011;11215;51.938;8.464;2023-03-02T23:07:11;17.47;;;9.73;;
22097;SDS011;11215;51.938;8.464;2023-03-02T23:13:02;19.97;;;10.17;;
22097;SDS011;11215;51.938;8.464;2023-03-02T23:18:50;17.50;;;10.27;;
22097;SDS011;11215;51.938;8.464;2023-03-02T23:23:49;21.23;;;11.43;;
22097;SDS011;11215;51.938;8.464;2023-03-02T23:26:18;22.33;;;11.87;;
22097;SDS011;11215;51.938;8.464;2023-03-02T23:32:06;19.73;;;10.93;;
22097;SDS011;11215;51.938;8.464;2023-03-02T23:34:32;19.30;;;10.73;;
22097;SDS011;11215;51.938;8.464;2023-03-02T23:50:25;22.03;;;10.83;;